sensor_id;sensor_type;location;lat;lon;timestamp;temperature;humidity
3876;DHT22;1953;51.222;6.624;2023-03-23T00:04:36;14.00;1.00
3876;DHT22;1953;51.222;6.624;2023-03-23T00:10:22;14.00;1.00
3876;DHT22;1953;51.222;6.624;2023-03-23T00:15:07;13.90;1.00
3876;DHT22;1953;51.222;6.624;2023-03-23T00:19:53;13.90;1.00
3876;DHT22;1953;51.222;6.624;2023-03-23T00:24:36;13.90;1.00
3876;DHT22;1953;51.222;6.624;2023-03-23T00:29:21;14.00;1.00
3876;DHT22;1953;51.222;6.624;2023-03-23T00:34:04;14.00;1.00
3876;DHT22;1953;51.222;6.624;2023-03-23T00:38:47;14.00;1.00
3876;DHT22;1953;51.222;6.624;2023-03-23T00:43:30;14.00;1.00
3876;DHT22;1953;51.222;6.624;2023-03-23T00:48:14;14.10;1.00
3876;DHT22;1953;51.222;6.624;2023-03-23T00:52:57;13.90;1.00
3876;DHT22;1953;51.222;6.624;2023-03-23T00:57:39;14.00;1.00
3876;DHT22;1953;51.222;6.624;2023-03-23T01:02:22;13.90;1.00
3876;DHT22;1953;51.222;6.624;2023-03-23T01:07:07;13.90;1.00
3876;DHT22;1953;51.222;6.624;2023-03-23T01:11:53;13.90;1.00
3876;DHT22;1953;51.222;6.624;2023-03-23T01:16:37;14.00;1.00
3876;DHT22;1953;51.222;6.624;2023-03-23T01:21:20;14.00;1.00
3876;DHT22;1953;51.222;6.624;2023-03-23T01:26:05;14.00;1.00
3876;DHT22;1953;51.222;6.624;2023-03-23T01:30:48;14.00;1.00
3876;DHT22;1953;51.222;6.624;2023-03-23T01:35:30;14.00;1.00
3876;DHT22;1953;51.222;6.624;2023-03-23T01:40:13;13.90;1.00
3876;DHT22;1953;51.222;6.624;2023-03-23T01:45:22;13.80;1.00
3876;DHT22;1953;51.222;6.624;2023-03-23T01:50:05;13.70;1.00
3876;DHT22;1953;51.222;6.624;2023-03-23T01:54:49;13.50;1.00
3876;DHT22;1953;51.222;6.624;2023-03-23T01:59:34;13.40;1.00
3876;DHT22;1953;51.222;6.624;2023-03-23T02:04:19;13.30;1.00
3876;DHT22;1953;51.222;6.624;2023-03-23T02:09:02;13.30;1.00
3876;DHT22;1953;51.222;6.624;2023-03-23T02:13:48;13.40;1.00
3876;DHT22;1953;51.222;6.624;2023-03-23T02:18:43;13.30;1.00
3876;DHT22;1953;51.222;6.624;2023-03-23T02:23:59;13.30;1.00
3876;DHT22;1953;51.222;6.624;2023-03-23T02:28:59;13.20;1.00
3876;DHT22;1953;51.222;6.624;2023-03-23T02:33:49;13.30;1.00
3876;DHT22;1953;51.222;6.624;2023-03-23T02:38:37;13.30;1.00
3876;DHT22;1953;51.222;6.624;2023-03-23T02:43:23;13.20;1.00
3876;DHT22;1953;51.222;6.624;2023-03-23T02:48:08;13.30;1.00
3876;DHT22;1953;51.222;6.624;2023-03-23T02:52:54;13.20;1.00
3876;DHT22;1953;51.222;6.624;2023-03-23T02:57:38;13.30;1.00
3876;DHT22;1953;51.222;6.624;2023-03-23T03:02:22;13.30;1.00
3876;DHT22;1953;51.222;6.624;2023-03-23T03:07:17;13.30;1.00
3876;DHT22;1953;51.222;6.624;2023-03-23T03:12:10;13.30;1.00
3876;DHT22;1953;51.222;6.624;2023-03-23T03:17:00;13.30;1.00
3876;DHT22;1953;51.222;6.624;2023-03-23T03:21:45;13.30;1.00
3876;DHT22;1953;51.222;6.624;2023-03-23T03:26:30;13.30;1.00
3876;DHT22;1953;51.222;6.624;2023-03-23T03:31:18;13.40;1.00
3876;DHT22;1953;51.222;6.624;2023-03-23T03:36:04;13.40;1.00
3876;DHT22;1953;51.222;6.624;2023-03-23T03:40:50;13.50;1.00
3876;DHT22;1953;51.222;6.624;2023-03-23T03:45:32;13.50;1.00
3876;DHT22;1953;51.222;6.624;2023-03-23T03:50:17;13.40;1.00
3876;DHT22;1953;51.222;6.624;2023-03-23T03:54:59;13.40;1.00
3876;DHT22;1953;51.222;6.624;2023-03-23T03:59:42;13.40;1.00
3876;DHT22;1953;51.222;6.624;2023-03-23T04:04:25;13.50;1.00
3876;DHT22;1953;51.222;6.624;2023-03-23T04:09:09;13.40;1.00
3876;DHT22;1953;51.222;6.624;2023-03-23T04:13:53;13.50;1.00
3876;DHT22;1953;51.222;6.624;2023-03-23T04:18:35;13.60;1.00
3876;DHT22;1953;51.222;6.624;2023-03-23T04:23:19;13.60;1.00
3876;DHT22;1953;51.222;6.624;2023-03-23T04:28:04;13.50;1.00
3876;DHT22;1953;51.222;6.624;2023-03-23T04:32:48;13.50;1.00
3876;DHT22;1953;51.222;6.624;2023-03-23T04:37:33;13.60;1.00
3876;DHT22;1953;51.222;6.624;2023-03-23T04:42:15;13.70;1.00
3876;DHT22;1953;51.222;6.624;2023-03-23T04:47:00;13.60;1.00
3876;DHT22;1953;51.222;6.624;2023-03-23T04:51:43;13.60;1.00
3876;DHT22;1953;51.222;6.624;2023-03-23T04:56:25;13.60;1.00
3876;DHT22;1953;51.222;6.624;2023-03-23T05:01:08;13.70;1.00
3876;DHT22;1953;51.222;6.624;2023-03-23T05:05:51;13.70;1.00
3876;DHT22;1953;51.222;6.624;2023-03-23T05:10:34;13.70;1.00
3876;DHT22;1953;51.222;6.624;2023-03-23T05:15:16;13.70;1.00
3876;DHT22;1953;51.222;6.624;2023-03-23T05:19:59;13.70;1.00
3876;DHT22;1953;51.222;6.624;2023-03-23T05:24:45;13.80;1.00
3876;DHT22;1953;51.222;6.624;2023-03-23T05:29:27;13.70;1.00
3876;DHT22;1953;51.222;6.624;2023-03-23T05:34:11;13.80;1.00
3876;DHT22;1953;51.222;6.624;2023-03-23T05:38:53;13.80;1.00
3876;DHT22;1953;51.222;6.624;2023-03-23T05:43:37;13.80;1.00
3876;DHT22;1953;51.222;6.624;2023-03-23T05:48:20;13.70;1.00
3876;DHT22;1953;51.222;6.624;2023-03-23T05:53:03;13.80;1.00
3876;DHT22;1953;51.222;6.624;2023-03-23T05:57:45;13.80;1.00
3876;DHT22;1953;51.222;6.624;2023-03-23T06:02:29;13.70;1.00
3876;DHT22;1953;51.222;6.624;2023-03-23T06:07:12;13.70;1.00
3876;DHT22;1953;51.222;6.624;2023-03-23T06:11:55;13.80;1.00
3876;DHT22;1953;51.222;6.624;2023-03-23T06:16:38;13.70;1.00
3876;DHT22;1953;51.222;6.624;2023-03-23T06:21:23;13.70;1.00
3876;DHT22;1953;51.222;6.624;2023-03-23T06:26:06;13.70;1.00
3876;DHT22;1953;51.222;6.624;2023-03-23T06:30:49;13.70;1.00
3876;DHT22;1953;51.222;6.624;2023-03-23T06:35:33;13.80;1.00
3876;DHT22;1953;51.222;6.624;2023-03-23T06:40:17;13.90;1.00
3876;DHT22;1953;51.222;6.624;2023-03-23T06:45:00;13.80;1.00
3876;DHT22;1953;51.222;6.624;2023-03-23T06:49:43;13.90;1.00
3876;DHT22;1953;51.222;6.624;2023-03-23T06:54:26;13.90;1.00
3876;DHT22;1953;51.222;6.624;2023-03-23T06:59:10;14.00;1.00
3876;DHT22;1953;51.222;6.624;2023-03-23T07:03:53;14.00;1.00
3876;DHT22;1953;51.222;6.624;2023-03-23T07:08:36;14.00;1.00
3876;DHT22;1953;51.222;6.624;2023-03-23T07:13:19;14.00;1.00
3876;DHT22;1953;51.222;6.624;2023-03-23T07:18:03;13.90;1.00
3876;DHT22;1953;51.222;6.624;2023-03-23T07:22:46;14.00;1.00
3876;DHT22;1953;51.222;6.624;2023-03-23T07:27:28;14.10;1.00
3876;DHT22;1953;51.222;6.624;2023-03-23T07:32:11;14.10;1.00
3876;DHT22;1953;51.222;6.624;2023-03-23T07:36:55;14.10;1.00
3876;DHT22;1953;51.222;6.624;2023-03-23T07:41:38;14.10;1.00
3876;DHT22;1953;51.222;6.624;2023-03-23T07:46:20;14.20;1.00
3876;DHT22;1953;51.222;6.624;2023-03-23T07:51:03;14.30;1.00
3876;DHT22;1953;51.222;6.624;2023-03-23T07:55:47;14.40;1.00
3876;DHT22;1953;51.222;6.624;2023-03-23T08:00:30;14.30;1.00
3876;DHT22;1953;51.222;6.624;2023-03-23T08:05:14;14.40;1.00
3876;DHT22;1953;51.222;6.624;2023-03-23T08:09:57;14.50;1.00
3876;DHT22;1953;51.222;6.624;2023-03-23T08:14:41;14.60;1.00
3876;DHT22;1953;51.222;6.624;2023-03-23T08:19:23;14.70;1.00
3876;DHT22;1953;51.222;6.624;2023-03-23T08:24:06;14.80;1.00
3876;DHT22;1953;51.222;6.624;2023-03-23T08:28:49;14.80;1.00
3876;DHT22;1953;51.222;6.624;2023-03-23T08:33:33;14.80;1.00
3876;DHT22;1953;51.222;6.624;2023-03-23T08:38:16;14.90;1.00
3876;DHT22;1953;51.222;6.624;2023-03-23T08:42:58;14.90;1.00
3876;DHT22;1953;51.222;6.624;2023-03-23T08:47:41;15.00;1.00
3876;DHT22;1953;51.222;6.624;2023-03-23T08:52:25;15.00;1.00
3876;DHT22;1953;51.222;6.624;2023-03-23T08:57:07;15.10;1.00
3876;DHT22;1953;51.222;6.624;2023-03-23T09:01:50;15.10;1.00
3876;DHT22;1953;51.222;6.624;2023-03-23T09:06:32;15.10;1.00
3876;DHT22;1953;51.222;6.624;2023-03-23T09:11:17;15.20;1.00
3876;DHT22;1953;51.222;6.624;2023-03-23T09:16:00;15.30;1.00
3876;DHT22;1953;51.222;6.624;2023-03-23T09:20:42;15.40;1.00
3876;DHT22;1953;51.222;6.624;2023-03-23T09:25:26;15.30;1.00
3876;DHT22;1953;51.222;6.624;2023-03-23T09:44:30;15.20;1.00
3876;DHT22;1953;51.222;6.624;2023-03-23T09:49:18;15.10;1.00
3876;DHT22;1953;51.222;6.624;2023-03-23T09:54:05;14.60;1.00
3876;DHT22;1953;51.222;6.624;2023-03-23T09:58:55;13.50;1.00
3876;DHT22;1953;51.222;6.624;2023-03-23T10:03:42;13.00;1.00
3876;DHT22;1953;51.222;6.624;2023-03-23T10:08:27;12.70;1.00
3876;DHT22;1953;51.222;6.624;2023-03-23T10:13:18;12.50;1.00
3876;DHT22;1953;51.222;6.624;2023-03-23T10:18:03;12.30;1.00
3876;DHT22;1953;51.222;6.624;2023-03-23T10:22:51;12.20;1.00
3876;DHT22;1953;51.222;6.624;2023-03-23T10:27:41;12.00;1.00
3876;DHT22;1953;51.222;6.624;2023-03-23T10:32:41;11.90;1.00
3876;DHT22;1953;51.222;6.624;2023-03-23T10:37:28;11.80;1.00
3876;DHT22;1953;51.222;6.624;2023-03-23T10:42:22;11.80;1.00
3876;DHT22;1953;51.222;6.624;2023-03-23T10:47:06;11.90;1.00
3876;DHT22;1953;51.222;6.624;2023-03-23T10:51:56;11.90;1.00
3876;DHT22;1953;51.222;6.624;2023-03-23T10:56:42;11.90;1.00
3876;DHT22;1953;51.222;6.624;2023-03-23T11:01:31;12.10;1.00
3876;DHT22;1953;51.222;6.624;2023-03-23T11:06:20;12.10;1.00
3876;DHT22;1953;51.222;6.624;2023-03-23T11:11:11;12.10;1.00
3876;DHT22;1953;51.222;6.624;2023-03-23T11:15:57;12.10;1.00
3876;DHT22;1953;51.222;6.624;2023-03-23T11:20:44;12.30;1.00
3876;DHT22;1953;51.222;6.624;2023-03-23T11:25:29;12.60;1.00
3876;DHT22;1953;51.222;6.624;2023-03-23T11:30:20;12.70;1.00
3876;DHT22;1953;51.222;6.624;2023-03-23T11:35:06;12.80;1.00
3876;DHT22;1953;51.222;6.624;2023-03-23T11:39:56;13.20;1.00
3876;DHT22;1953;51.222;6.624;2023-03-23T11:44:41;13.40;1.00
3876;DHT22;1953;51.222;6.624;2023-03-23T11:49:40;13.40;1.00
3876;DHT22;1953;51.222;6.624;2023-03-23T11:54:30;13.30;1.00
3876;DHT22;1953;51.222;6.624;2023-03-23T11:59:17;13.30;1.00
3876;DHT22;1953;51.222;6.624;2023-03-23T12:04:26;13.10;1.00
3876;DHT22;1953;51.222;6.624;2023-03-23T12:11:28;13.20;1.00
3876;DHT22;1953;51.222;6.624;2023-03-23T12:16:20;13.20;1.00
3876;DHT22;1953;51.222;6.624;2023-03-23T12:21:12;13.30;1.00
3876;DHT22;1953;51.222;6.624;2023-03-23T12:26:19;13.20;1.00
3876;DHT22;1953;51.222;6.624;2023-03-23T12:31:11;13.30;1.00
3876;DHT22;1953;51.222;6.624;2023-03-23T12:36:06;13.60;1.00
3876;DHT22;1953;51.222;6.624;2023-03-23T12:41:00;13.70;1.00
3876;DHT22;1953;51.222;6.624;2023-03-23T12:46:00;13.80;1.00
3876;DHT22;1953;51.222;6.624;2023-03-23T12:50:59;13.70;1.00
3876;DHT22;1953;51.222;6.624;2023-03-23T12:55:46;13.90;1.00
3876;DHT22;1953;51.222;6.624;2023-03-23T13:00:35;14.10;1.00
3876;DHT22;1953;51.222;6.624;2023-03-23T13:05:29;14.60;1.00
3876;DHT22;1953;51.222;6.624;2023-03-23T13:10:22;15.10;1.00
3876;DHT22;1953;51.222;6.624;2023-03-23T13:15:18;15.40;1.00
3876;DHT22;1953;51.222;6.624;2023-03-23T13:20:32;15.50;1.00
3876;DHT22;1953;51.222;6.624;2023-03-23T13:25:27;15.30;1.00
3876;DHT22;1953;51.222;6.624;2023-03-23T13:30:20;15.80;1.00
3876;DHT22;1953;51.222;6.624;2023-03-23T13:35:12;15.40;1.00
3876;DHT22;1953;51.222;6.624;2023-03-23T13:40:14;15.30;1.00
3876;DHT22;1953;51.222;6.624;2023-03-23T13:45:20;15.10;1.00
3876;DHT22;1953;51.222;6.624;2023-03-23T13:50:11;14.90;1.00
3876;DHT22;1953;51.222;6.624;2023-03-23T13:55:17;14.80;1.00
3876;DHT22;1953;51.222;6.624;2023-03-23T14:00:11;14.60;1.00
3876;DHT22;1953;51.222;6.624;2023-03-23T14:04:57;14.60;1.00
3876;DHT22;1953;51.222;6.624;2023-03-23T14:09:42;14.60;1.00
3876;DHT22;1953;51.222;6.624;2023-03-23T14:25:33;16.20;1.00
3876;DHT22;1953;51.222;6.624;2023-03-23T14:30:18;16.30;1.00
3876;DHT22;1953;51.222;6.624;2023-03-23T14:35:05;16.10;1.00
3876;DHT22;1953;51.222;6.624;2023-03-23T14:39:50;15.80;1.00
3876;DHT22;1953;51.222;6.624;2023-03-23T14:44:39;15.60;1.00
3876;DHT22;1953;51.222;6.624;2023-03-23T14:49:28;15.70;1.00
3876;DHT22;1953;51.222;6.624;2023-03-23T14:54:11;15.50;1.00
3876;DHT22;1953;51.222;6.624;2023-03-23T14:58:54;15.40;1.00
3876;DHT22;1953;51.222;6.624;2023-03-23T15:03:50;15.40;1.00
3876;DHT22;1953;51.222;6.624;2023-03-23T15:08:34;16.10;1.00
3876;DHT22;1953;51.222;6.624;2023-03-23T15:13:17;16.90;1.00
3876;DHT22;1953;51.222;6.624;2023-03-23T15:18:01;17.40;1.00
3876;DHT22;1953;51.222;6.624;2023-03-23T15:22:46;17.80;1.00
3876;DHT22;1953;51.222;6.624;2023-03-23T15:27:32;18.20;1.00
3876;DHT22;1953;51.222;6.624;2023-03-23T15:32:21;18.20;1.00
3876;DHT22;1953;51.222;6.624;2023-03-23T15:37:06;18.30;1.00
3876;DHT22;1953;51.222;6.624;2023-03-23T15:42:00;18.70;1.00
3876;DHT22;1953;51.222;6.624;2023-03-23T15:46:50;18.50;1.00
3876;DHT22;1953;51.222;6.624;2023-03-23T15:51:26;18.60;1.00
3876;DHT22;1953;51.222;6.624;2023-03-23T15:56:10;18.50;1.00
3876;DHT22;1953;51.222;6.624;2023-03-23T16:00:55;18.60;1.00
3876;DHT22;1953;51.222;6.624;2023-03-23T16:05:39;18.50;1.00
3876;DHT22;1953;51.222;6.624;2023-03-23T16:10:23;18.50;1.00
3876;DHT22;1953;51.222;6.624;2023-03-23T16:15:06;18.50;1.00
3876;DHT22;1953;51.222;6.624;2023-03-23T16:19:50;18.60;1.00
3876;DHT22;1953;51.222;6.624;2023-03-23T16:24:33;18.40;1.00
3876;DHT22;1953;51.222;6.624;2023-03-23T16:29:16;18.30;1.00
3876;DHT22;1953;51.222;6.624;2023-03-23T16:33:58;18.40;1.00
3876;DHT22;1953;51.222;6.624;2023-03-23T16:38:42;18.40;1.00
3876;DHT22;1953;51.222;6.624;2023-03-23T16:43:25;18.10;1.00
3876;DHT22;1953;51.222;6.624;2023-03-23T16:48:08;17.70;1.00
3876;DHT22;1953;51.222;6.624;2023-03-23T16:52:50;17.40;1.00
3876;DHT22;1953;51.222;6.624;2023-03-23T16:57:35;17.20;1.00
3876;DHT22;1953;51.222;6.624;2023-03-23T17:02:18;17.10;1.00
3876;DHT22;1953;51.222;6.624;2023-03-23T17:07:00;17.00;1.00
3876;DHT22;1953;51.222;6.624;2023-03-23T17:11:43;16.80;1.00
3876;DHT22;1953;51.222;6.624;2023-03-23T17:16:27;16.70;1.00
3876;DHT22;1953;51.222;6.624;2023-03-23T17:21:09;16.70;1.00
3876;DHT22;1953;51.222;6.624;2023-03-23T17:25:52;16.70;1.00
3876;DHT22;1953;51.222;6.624;2023-03-23T17:30:34;16.60;1.00
3876;DHT22;1953;51.222;6.624;2023-03-23T17:35:18;16.40;1.00
3876;DHT22;1953;51.222;6.624;2023-03-23T17:40:01;16.30;1.00
3876;DHT22;1953;51.222;6.624;2023-03-23T17:44:44;16.20;1.00
3876;DHT22;1953;51.222;6.624;2023-03-23T17:49:27;16.10;1.00
3876;DHT22;1953;51.222;6.624;2023-03-23T17:54:11;15.90;1.00
3876;DHT22;1953;51.222;6.624;2023-03-23T17:58:54;15.80;1.00
3876;DHT22;1953;51.222;6.624;2023-03-23T18:03:36;15.80;1.00
3876;DHT22;1953;51.222;6.624;2023-03-23T18:08:19;15.70;1.00
3876;DHT22;1953;51.222;6.624;2023-03-23T18:13:04;15.50;1.00
3876;DHT22;1953;51.222;6.624;2023-03-23T18:17:46;15.40;1.00
3876;DHT22;1953;51.222;6.624;2023-03-23T18:22:31;15.30;1.00
3876;DHT22;1953;51.222;6.624;2023-03-23T18:27:13;15.30;1.00
3876;DHT22;1953;51.222;6.624;2023-03-23T18:31:57;15.30;1.00
3876;DHT22;1953;51.222;6.624;2023-03-23T18:36:39;15.20;1.00
3876;DHT22;1953;51.222;6.624;2023-03-23T18:41:22;15.10;1.00
3876;DHT22;1953;51.222;6.624;2023-03-23T18:46:06;15.10;1.00
3876;DHT22;1953;51.222;6.624;2023-03-23T18:50:53;15.10;1.00
3876;DHT22;1953;51.222;6.624;2023-03-23T18:54:54;15.10;1.00
3876;DHT22;1953;51.222;6.624;2023-03-23T18:59:37;15.00;1.00
3876;DHT22;1953;51.222;6.624;2023-03-23T19:04:20;14.80;1.00
3876;DHT22;1953;51.222;6.624;2023-03-23T19:09:04;14.60;1.00
3876;DHT22;1953;51.222;6.624;2023-03-23T19:13:47;14.50;1.00
3876;DHT22;1953;51.222;6.624;2023-03-23T19:18:30;14.40;1.00
3876;DHT22;1953;51.222;6.624;2023-03-23T19:23:12;14.30;1.00
3876;DHT22;1953;51.222;6.624;2023-03-23T19:27:56;14.20;1.00
3876;DHT22;1953;51.222;6.624;2023-03-23T19:32:38;14.20;1.00
3876;DHT22;1953;51.222;6.624;2023-03-23T19:37:21;14.20;1.00
3876;DHT22;1953;51.222;6.624;2023-03-23T19:42:03;14.20;1.00
3876;DHT22;1953;51.222;6.624;2023-03-23T19:46:48;14.20;1.00
3876;DHT22;1953;51.222;6.624;2023-03-23T19:51:30;14.20;1.00
3876;DHT22;1953;51.222;6.624;2023-03-23T19:56:14;14.20;1.00
3876;DHT22;1953;51.222;6.624;2023-03-23T20:00:59;14.20;1.00
3876;DHT22;1953;51.222;6.624;2023-03-23T20:05:43;14.20;1.00
3876;DHT22;1953;51.222;6.624;2023-03-23T20:10:26;14.30;1.00
3876;DHT22;1953;51.222;6.624;2023-03-23T20:15:09;14.30;1.00
3876;DHT22;1953;51.222;6.624;2023-03-23T20:19:52;14.40;1.00
3876;DHT22;1953;51.222;6.624;2023-03-23T20:24:35;14.50;1.00
3876;DHT22;1953;51.222;6.624;2023-03-23T20:29:18;14.60;1.00
3876;DHT22;1953;51.222;6.624;2023-03-23T20:34:03;14.60;1.00
3876;DHT22;1953;51.222;6.624;2023-03-23T20:38:47;14.70;1.00
3876;DHT22;1953;51.222;6.624;2023-03-23T20:43:31;14.70;1.00
3876;DHT22;1953;51.222;6.624;2023-03-23T20:48:14;14.80;1.00
3876;DHT22;1953;51.222;6.624;2023-03-23T20:52:57;14.80;1.00
3876;DHT22;1953;51.222;6.624;2023-03-23T20:57:39;14.80;1.00
3876;DHT22;1953;51.222;6.624;2023-03-23T21:02:23;14.80;1.00
3876;DHT22;1953;51.222;6.624;2023-03-23T21:07:10;14.80;1.00
3876;DHT22;1953;51.222;6.624;2023-03-23T21:11:52;14.70;1.00
3876;DHT22;1953;51.222;6.624;2023-03-23T21:16:35;14.60;1.00
3876;DHT22;1953;51.222;6.624;2023-03-23T21:21:20;14.60;1.00
3876;DHT22;1953;51.222;6.624;2023-03-23T21:26:04;14.60;1.00
3876;DHT22;1953;51.222;6.624;2023-03-23T21:30:48;14.60;1.00
3876;DHT22;1953;51.222;6.624;2023-03-23T21:35:32;14.50;1.00
3876;DHT22;1953;51.222;6.624;2023-03-23T21:40:16;14.50;1.00
3876;DHT22;1953;51.222;6.624;2023-03-23T21:44:59;14.60;1.00
3876;DHT22;1953;51.222;6.624;2023-03-23T21:49:42;14.60;1.00
3876;DHT22;1953;51.222;6.624;2023-03-23T21:54:26;14.60;1.00
3876;DHT22;1953;51.222;6.624;2023-03-23T21:59:11;14.50;1.00
3876;DHT22;1953;51.222;6.624;2023-03-23T22:03:54;14.60;1.00
3876;DHT22;1953;51.222;6.624;2023-03-23T22:08:38;14.50;1.00
3876;DHT22;1953;51.222;6.624;2023-03-23T22:13:20;14.60;1.00
3876;DHT22;1953;51.222;6.624;2023-03-23T22:18:04;14.50;1.00
3876;DHT22;1953;51.222;6.624;2023-03-23T22:22:46;14.40;1.00
3876;DHT22;1953;51.222;6.624;2023-03-23T22:27:29;14.40;1.00
3876;DHT22;1953;51.222;6.624;2023-03-23T22:32:12;14.20;1.00
3876;DHT22;1953;51.222;6.624;2023-03-23T22:36:56;14.10;1.00
3876;DHT22;1953;51.222;6.624;2023-03-23T22:41:40;14.10;1.00
3876;DHT22;1953;51.222;6.624;2023-03-23T22:46:23;14.00;1.00
3876;DHT22;1953;51.222;6.624;2023-03-23T22:51:06;13.90;1.00
3876;DHT22;1953;51.222;6.624;2023-03-23T22:55:53;13.80;1.00
3876;DHT22;1953;51.222;6.624;2023-03-23T23:00:36;13.80;1.00
3876;DHT22;1953;51.222;6.624;2023-03-23T23:05:19;13.70;1.00
3876;DHT22;1953;51.222;6.624;2023-03-23T23:10:03;13.60;1.00
3876;DHT22;1953;51.222;6.624;2023-03-23T23:14:47;13.60;1.00
3876;DHT22;1953;51.222;6.624;2023-03-23T23:19:30;13.60;1.00
3876;DHT22;1953;51.222;6.624;2023-03-23T23:24:13;13.60;1.00
3876;DHT22;1953;51.222;6.624;2023-03-23T23:28:56;13.60;1.00
3876;DHT22;1953;51.222;6.624;2023-03-23T23:33:40;13.60;1.00
3876;DHT22;1953;51.222;6.624;2023-03-23T23:38:22;13.50;1.00
3876;DHT22;1953;51.222;6.624;2023-03-23T23:43:05;13.60;1.00
3876;DHT22;1953;51.222;6.624;2023-03-23T23:47:47;13.70;1.00
3876;DHT22;1953;51.222;6.624;2023-03-23T23:52:32;13.60;1.00
3876;DHT22;1953;51.222;6.624;2023-03-23T23:57:14;13.60;1.00
